Sand Spring Valley, Nevada Weather observations

Data are for 10 minute period ending at time listed.
 Day   Time   Solar   Ave.   Ave.  Ave.  Vector  Max.   Baro.   Total    
  of    of     Rad.   Air    Rel.  Wind   Wind   Wind  Press.  Precip.   
Year   Day            Temp.  Hum.  Speed  Dir.   Gust                    
2017   (PST)  Kw/m2    F      %     mph   deg.    mph    mb.     in.     
-------------------------------------------------------------------------
 117    2:00   0.00   42.9    58    7.6   238     9.2   846.1    0.00 
 117    2:10   0.00   43.2    56    7.7   251     9.2   846.2    0.00 
 117    2:20   0.00   43.6    55    7.4   256     9.1   846.1    0.00 
 117    2:30   0.00   42.5    56    6.0   257     8.1   846.2    0.00 
 117    2:40   0.00   43.1    53    4.3   267     6.3   846.2    0.00 
 117    2:50   0.00   42.6    52    4.0   287     6.2   846.2    0.00 
 117    3:00   0.00   43.3    51    5.8   299     8.6   846.5    0.00 
 117    3:10   0.00   42.9    52    4.6   262     7.5   846.7    0.00 
 117    3:20   0.00   44.9    47    2.7   257     3.8   846.6    0.00 
 117    3:30   0.00   44.4    50    3.9   244     5.2   846.5    0.00 
 117    3:40   0.00   40.8    55    3.7   260     5.3   846.5    0.00 
 117    3:50   0.00   37.5    63    1.4   252     3.0   846.6    0.00 
 117    4:00   0.00   37.5    64    0.7   269     2.4   846.8    0.00 
 117    4:10   0.00   39.7    67    5.5   277    11.2   846.8    0.00 
 117    4:20   0.00   42.9    69    9.3   282    12.7   846.7    0.00 
 117    4:30   0.00   42.5    70    7.1   279     9.5   846.7    0.00 
 117    4:40   0.00   41.9    72    5.9   297     8.7   847.0    0.00 
 117    4:50   0.00   40.9    73    4.3   284     7.0   846.9    0.00 
 117    5:00   0.00   40.9    75    7.0   280     9.2   846.9    0.00 
 117    5:10   0.00   41.7    74    8.9   278    11.5   846.9    0.00 
 117    5:20   0.00   42.6    72    8.9   285    11.3   847.1    0.00 
 117    5:30   0.00   43.5    71    9.8   292    12.7   847.2    0.00 
 117    5:40   0.00   43.7    70    8.4   288    12.1   847.4    0.00 
 117    5:50   0.00   44.7    68    7.7   299     9.8   847.4    0.00 
 117    6:00   0.00   46.1    66    6.1   293     8.6   847.4    0.00 
 117    6:10   0.00   47.5    64    7.2   291     9.5   847.4    0.00 
 117    6:20   0.00   49.0    60    7.5   304    11.8   847.5    0.00 
 117    6:30   0.00   50.5    54    9.0   328    11.8   847.4    0.00 
 117    6:40   0.00   51.2    51    7.0   333    10.5   847.4    0.00 
 117    6:50   0.00   51.5    51    8.1   330    11.9   847.4    0.00 
 117    7:00   0.00   51.9    50    7.3   334    10.4   847.3    0.00 
 117    7:10   0.00   51.8    50    6.4   328     9.8   847.2    0.00 
 117    7:20   0.00   52.1    50    6.7   326    10.9   847.2    0.00 
 117    7:30   0.00   52.1    49    7.0   330    12.1   847.3    0.00 
 117    7:40   0.00   52.0    51    5.7   318     9.6   847.1    0.00 
 117    7:50   0.00   52.8    49    3.7   324     6.9   847.2    0.00 
 117    8:00   0.00   53.6    48    2.1    28     8.0   847.3    0.00 
 117    8:10   0.00   54.5    46    2.0     1     4.2   847.3    0.00 
 117    8:20   0.00   54.7    46    2.3   199     6.6   847.2    0.00 
 117    8:30   0.00   53.8    47    4.8   292     9.4   847.2    0.00 
 117    8:40   0.00   53.7    47    5.0   292    10.7   847.3    0.00 
 117    8:50   0.00   54.2    46    4.2   279     9.1   847.1    0.00 
 117    9:00   0.00   55.1    43    4.1   323     9.8   847.2    0.00 
 117    9:10   0.00   55.1    40    3.7     9     8.8   847.2    0.00 
 117    9:20   0.00   55.6    42    4.9   305    11.5   847.2    0.00 
 117    9:30   0.00   55.6    40    6.4   307    11.2   847.2    0.00 
 117    9:40   0.00   56.8    38    8.9   340    17.5   847.4    0.00 
 117    9:50   0.00   56.7    37    9.1   315    15.9   847.2    0.00 
 117   10:00   0.00   57.1    37   12.0   316    22.0   847.1    0.00 
 117   10:10   0.00   58.0    36    9.8   298    18.7   846.9    0.00 
 117   10:20   0.00   58.6    34    6.3   305    16.4   846.9    0.00 
 117   10:30   0.00   58.7    35   11.5   310    21.0   846.9    0.00 
 117   10:40   0.00   58.9    34   12.2   300    20.8   846.8    0.00 
 117   10:50   0.00   58.7    35    9.3   307    16.1   846.6    0.00 
 117   11:00   0.00   59.6    33    7.2   318    15.6   846.6    0.00 
 117   11:10   0.00   59.4    33    8.3   313    17.5   846.4    0.00 
 117   11:20   0.00   60.6    31   10.8   323    18.7   846.4    0.00 
 117   11:30   0.00   61.1    31   12.6   315    18.7   846.4    0.00 
 117   11:40   0.00   61.1    28    6.8   352    15.8   846.3    0.00 
 117   11:50   0.00   60.7    30    7.6   312    14.3   845.9    0.00 
 117   12:00   0.00   62.4    28   10.7   284    19.8   845.7    0.00 
 117   12:10   0.00   62.5    26   14.7   289    22.6   845.7    0.00 
 117   12:20   0.00   62.2    24    9.4   289    18.9   845.7    0.00 
 117   12:30   0.00   62.7    21   11.9   292    22.1   845.6    0.00 
 117   12:40   0.00   63.2    21   11.4   315    20.9   845.6    0.00 
 117   12:50   0.00   63.6    22   12.3   309    17.6   845.5    0.00 
 117   13:00   0.00   63.0    20   14.7   317    25.1   845.1    0.00 
 117   13:10   0.00   63.1    21   13.7   295    19.0   845.2    0.00 
 117   13:20   0.00   64.1    19   17.0   296    26.7   845.1    0.00 
 117   13:30   0.00   63.8    18   17.1   299    27.7   844.9    0.00 
 117   13:40   0.00   63.6    18   20.1   292    29.8   844.9    0.00 
 117   13:50   0.00   63.6    17   18.9   298    28.8   845.1    0.00 
 117   14:00   0.00   63.0    17   18.0   290    28.6   845.0    0.00 
 117   14:10   0.00   62.8    18   16.7   293    26.5   845.1    0.00 
 117   14:20   0.00   63.4    17   19.7   296    29.1   844.9    0.00 
 117   14:30   0.00   63.1    17   19.2   290    27.0   844.8    0.00 
 117   14:40   0.00   62.0    16   22.2   289    31.4   844.8    0.00 
 117   14:50   0.00   61.6    16   23.6   280    32.2   844.8    0.00 
 117   15:00   0.00   62.4    16   23.0   287    32.4   844.8    0.00 
 117   15:10   0.00   62.0    16   23.4   276    34.1   844.7    0.00 
 117   15:20   0.00   61.9    16   22.0   292    31.0   844.9    0.00 
 117   15:30   0.00   61.9    16   22.1   287    33.3   844.9    0.00 
 117   15:40   0.00   61.7    17   21.9   282    40.1   845.0    0.00 
 117   15:50   0.00   61.6    18   22.5   279    31.6   845.2    0.00 
 117   16:00   0.00   61.8    18   21.0   277    32.9   845.4    0.00 
 117   16:10   0.00   61.2    17   20.6   283    29.3   845.1    0.00 
 117   16:20   0.00   60.5    17   16.8   301    25.4   845.2    0.00 
 117   16:30   0.00   60.9    16   18.8   304    25.9   845.2    0.00 
 117   16:40   0.00   60.0    17   16.7   286    22.9   845.3    0.00 
 117   16:50   0.00   59.9    16   17.6   294    24.8   845.2    0.00 
 117   17:00   0.00   59.1    17   17.3   295    23.4   845.2    0.00 
 117   17:10   0.00   58.7    16   17.6   288    24.7   845.1    0.00 
 117   17:20   0.00   58.4    16   17.6   294    24.0   845.0    0.00 
 117   17:30   0.00   58.0    16   16.7   291    22.7   845.1    0.00 
 117   17:40   0.00   58.0    15   17.3   287    25.6   845.1    0.00 
 117   17:50   0.00   57.3    16   14.2   300    20.7   845.1    0.00 
 117   18:00   0.00   56.2    16   14.7   292    21.5   845.1    0.00 
 117   18:10   0.00   55.5    16   14.1   303    20.5   845.2    0.00 
 117   18:20   0.00   54.6    17   13.1   300    18.0   845.2    0.00 
 117   18:30   0.00   53.9    17   11.9   311    21.3   845.1    0.00 
 117   18:40   0.00   52.8    17   11.3   307    15.6   845.2    0.00 
 117   18:50   0.00   51.5    18    8.8   307    12.9   845.4    0.00 
 117   19:00   0.00   51.7    18   10.3   311    15.2   845.5    0.00 
 117   19:10   0.00   51.5    18    9.6   304    16.4   845.6    0.00 
 117   19:20   0.00   50.5    20    8.0   289    11.2   845.8    0.00 
 117   19:30   0.00   49.0    23    7.0   284     9.1   845.9    0.00 
 117   19:40   0.00   47.9    24    6.6   277     9.1   846.1    0.00 
 117   19:50   0.00   47.8    24    6.9   284     9.7   846.2    0.00 
 117   20:00   0.00   47.9    25    6.5   294     8.5   846.5    0.00 
 117   20:10   0.00   48.2    22    7.9   292    10.7   846.7    0.00 
 117   20:20   0.00   49.0    19    8.2   302    12.9   846.8    0.00 
 117   20:30   0.00   47.7    20    5.9   313    10.2   847.0    0.00 
 117   20:40   0.00   47.4    21    5.2   310     8.7   846.9    0.00 
 117   20:50   0.00   46.3    22    6.5   318     9.0   846.9    0.00 
 117   21:00   0.00   47.2    17    4.0   345     7.0   847.1    0.00 
 117   21:10   0.00   46.2    18    2.6   327     4.5   847.0    0.00 
 117   21:20   0.00   46.3    17    4.5   342     6.6   847.2    0.00 
 117   21:30   0.00   45.3    19    3.3   319     5.6   847.4    0.00 
 117   21:40   0.00   45.9    18    2.2   324     4.2   847.4    0.00 
 117   21:50   0.00   46.1    20    1.1   336     3.7   847.5    0.00 
 117   22:00   0.00   44.8    37    3.1    66     7.4   847.6    0.00 
 117   22:10   0.00   41.3    28    6.0    43     9.6   847.8    0.00 
 117   22:20   0.00   42.3    24    4.4    24     7.2   847.9    0.00 
 117   22:30   0.00   43.4    24    4.6    25     7.1   847.9    0.00 
 117   22:40   0.00   43.2    25    4.0     4     6.6   848.0    0.00 
 117   22:50   0.00   41.1    30    3.3   318     5.0   848.2    0.00 
 117   23:00   0.00   39.5    35    4.2   267     5.2   848.2    0.00 
 117   23:10   0.00   38.2    40    5.0   290     6.2   848.2    0.00 
 117   23:20   0.00   35.3    46    5.0   317     6.8   848.3    0.00 
 117   23:30   0.00   36.8    39    5.7   335     7.3   848.2    0.00 
 117   23:40   0.00   38.8    34    5.7   339     7.9   848.2    0.00 
 117   23:50   0.00   39.2    34    6.3   344     8.6   848.3    0.00 
 118    0:00   0.00   38.7    34    6.2   341     9.0   848.4    0.00 
 118    0:10   0.00   37.9    35    5.5   340     7.6   848.3    0.00 
 118    0:20   0.00   36.1    40    5.4   333     7.5   848.4    0.00 
 118    0:30   0.00   34.5    47    5.8   310     7.6   848.5    0.00 
 118    0:40   0.00   33.4    52    6.1   287     6.9   848.6    0.00 
 118    0:50   0.00   33.4    53    7.0   282     8.2   848.7    0.00 
 118    1:00   0.00   34.6    48    6.4   292     8.0   848.5    0.00 
 118    1:10   0.00   33.9    50    5.8   292     6.5   848.4    0.00 
 118    1:20   0.00   33.0    52    5.7   297     6.6   848.5    0.00 
 118    1:30   0.00   33.0    48    4.2   321     5.3   848.6    0.00 
 118    1:40   0.00   33.1    53    4.9   291     6.6   848.7    0.00 
 118    1:50   0.00   35.4    48    6.2   294     7.7   848.7    0.00 

Return to Sand Spring Valley graphs page.


Western Regional Climate Center,wrcc@dri.edu